sensor_id;sensor_type;location;lat;lon;timestamp;P1;durP1;ratioP1;P2;durP2;ratioP2
15915;SDS011;8057;47.830;-3.870;2022-09-21T00:02:18;3.73;;;3.33;;
15915;SDS011;8057;47.830;-3.870;2022-09-21T00:06:30;3.70;;;3.33;;
15915;SDS011;8057;47.830;-3.870;2022-09-21T00:10:40;4.07;;;3.67;;
15915;SDS011;8057;47.830;-3.870;2022-09-21T00:14:49;3.80;;;3.50;;
15915;SDS011;8057;47.830;-3.870;2022-09-21T00:18:59;3.60;;;3.30;;
15915;SDS011;8057;47.830;-3.870;2022-09-21T00:23:09;3.20;;;2.97;;
15915;SDS011;8057;47.830;-3.870;2022-09-21T00:27:18;3.90;;;3.60;;
15915;SDS011;8057;47.830;-3.870;2022-09-21T00:31:27;3.43;;;3.10;;
15915;SDS011;8057;47.830;-3.870;2022-09-21T00:35:38;3.80;;;3.37;;
15915;SDS011;8057;47.830;-3.870;2022-09-21T00:39:47;3.43;;;3.10;;
15915;SDS011;8057;47.830;-3.870;2022-09-21T00:48:40;3.57;;;3.10;;
15915;SDS011;8057;47.830;-3.870;2022-09-21T00:52:52;3.53;;;3.23;;
15915;SDS011;8057;47.830;-3.870;2022-09-21T00:57:03;4.60;;;2.90;;
15915;SDS011;8057;47.830;-3.870;2022-09-21T01:01:13;3.60;;;3.30;;
15915;SDS011;8057;47.830;-3.870;2022-09-21T01:05:24;3.90;;;3.60;;
15915;SDS011;8057;47.830;-3.870;2022-09-21T01:09:34;3.47;;;3.17;;
15915;SDS011;8057;47.830;-3.870;2022-09-21T01:13:46;3.67;;;3.37;;
15915;SDS011;8057;47.830;-3.870;2022-09-21T01:18:10;4.33;;;3.93;;
15915;SDS011;8057;47.830;-3.870;2022-09-21T01:22:27;4.07;;;3.53;;
15915;SDS011;8057;47.830;-3.870;2022-09-21T01:26:54;4.50;;;4.03;;
15915;SDS011;8057;47.830;-3.870;2022-09-21T01:31:18;6.93;;;4.30;;
15915;SDS011;8057;47.830;-3.870;2022-09-21T01:35:32;4.30;;;3.90;;
15915;SDS011;8057;47.830;-3.870;2022-09-21T01:39:44;4.73;;;4.17;;
15915;SDS011;8057;47.830;-3.870;2022-09-21T01:43:58;4.73;;;4.33;;
15915;SDS011;8057;47.830;-3.870;2022-09-21T01:48:15;4.67;;;4.27;;
15915;SDS011;8057;47.830;-3.870;2022-09-21T01:52:30;4.30;;;3.90;;
15915;SDS011;8057;47.830;-3.870;2022-09-21T01:56:43;4.77;;;4.10;;
15915;SDS011;8057;47.830;-3.870;2022-09-21T02:00:55;4.33;;;4.03;;
15915;SDS011;8057;47.830;-3.870;2022-09-21T02:05:07;4.77;;;4.27;;
15915;SDS011;8057;47.830;-3.870;2022-09-21T02:09:16;4.70;;;4.30;;
15915;SDS011;8057;47.830;-3.870;2022-09-21T02:13:25;4.83;;;4.43;;
15915;SDS011;8057;47.830;-3.870;2022-09-21T02:17:41;4.47;;;4.07;;
15915;SDS011;8057;47.830;-3.870;2022-09-21T02:22:03;4.40;;;4.00;;
15915;SDS011;8057;47.830;-3.870;2022-09-21T02:26:16;4.73;;;4.43;;
15915;SDS011;8057;47.830;-3.870;2022-09-21T02:30:31;5.47;;;4.80;;
15915;SDS011;8057;47.830;-3.870;2022-09-21T02:34:42;4.93;;;4.53;;
15915;SDS011;8057;47.830;-3.870;2022-09-21T02:38:55;5.20;;;4.70;;
15915;SDS011;8057;47.830;-3.870;2022-09-21T02:43:13;4.67;;;4.27;;
15915;SDS011;8057;47.830;-3.870;2022-09-21T02:47:28;4.73;;;4.33;;
15915;SDS011;8057;47.830;-3.870;2022-09-21T02:51:42;5.90;;;5.30;;
15915;SDS011;8057;47.830;-3.870;2022-09-21T02:55:56;5.17;;;4.70;;
15915;SDS011;8057;47.830;-3.870;2022-09-21T03:00:13;6.13;;;5.13;;
15915;SDS011;8057;47.830;-3.870;2022-09-21T03:04:23;4.93;;;4.57;;
15915;SDS011;8057;47.830;-3.870;2022-09-21T03:08:33;5.57;;;5.13;;
15915;SDS011;8057;47.830;-3.870;2022-09-21T03:12:44;5.63;;;5.13;;
15915;SDS011;8057;47.830;-3.870;2022-09-21T03:16:53;5.57;;;5.03;;
15915;SDS011;8057;47.830;-3.870;2022-09-21T03:21:02;6.47;;;4.83;;
15915;SDS011;8057;47.830;-3.870;2022-09-21T03:25:11;6.83;;;4.70;;
15915;SDS011;8057;47.830;-3.870;2022-09-21T03:29:21;5.47;;;4.97;;
15915;SDS011;8057;47.830;-3.870;2022-09-21T03:33:30;5.97;;;5.30;;
15915;SDS011;8057;47.830;-3.870;2022-09-21T03:37:39;4.77;;;4.27;;
15915;SDS011;8057;47.830;-3.870;2022-09-21T03:41:48;4.10;;;3.70;;
15915;SDS011;8057;47.830;-3.870;2022-09-21T03:45:59;4.40;;;4.00;;
15915;SDS011;8057;47.830;-3.870;2022-09-21T03:50:08;3.97;;;3.57;;
15915;SDS011;8057;47.830;-3.870;2022-09-21T03:54:18;4.40;;;3.93;;
15915;SDS011;8057;47.830;-3.870;2022-09-21T03:58:27;4.13;;;3.83;;
15915;SDS011;8057;47.830;-3.870;2022-09-21T04:02:38;4.40;;;3.40;;
15915;SDS011;8057;47.830;-3.870;2022-09-21T04:06:47;3.97;;;3.57;;
15915;SDS011;8057;47.830;-3.870;2022-09-21T04:10:56;4.30;;;3.90;;
15915;SDS011;8057;47.830;-3.870;2022-09-21T04:15:06;5.60;;;3.50;;
15915;SDS011;8057;47.830;-3.870;2022-09-21T04:19:18;4.60;;;3.77;;
15915;SDS011;8057;47.830;-3.870;2022-09-21T04:23:28;4.37;;;3.97;;
15915;SDS011;8057;47.830;-3.870;2022-09-21T04:27:37;4.53;;;4.13;;
15915;SDS011;8057;47.830;-3.870;2022-09-21T04:31:46;4.60;;;4.20;;
15915;SDS011;8057;47.830;-3.870;2022-09-21T04:35:56;4.27;;;3.87;;
15915;SDS011;8057;47.830;-3.870;2022-09-21T04:40:06;3.67;;;3.37;;
15915;SDS011;8057;47.830;-3.870;2022-09-21T04:44:16;3.97;;;3.50;;
15915;SDS011;8057;47.830;-3.870;2022-09-21T04:48:25;4.10;;;3.70;;
15915;SDS011;8057;47.830;-3.870;2022-09-21T04:52:35;3.90;;;3.60;;
15915;SDS011;8057;47.830;-3.870;2022-09-21T04:56:44;3.40;;;3.20;;
15915;SDS011;8057;47.830;-3.870;2022-09-21T05:00:53;4.93;;;3.53;;
15915;SDS011;8057;47.830;-3.870;2022-09-21T05:05:03;3.47;;;3.17;;
15915;SDS011;8057;47.830;-3.870;2022-09-21T05:09:15;3.63;;;3.33;;
15915;SDS011;8057;47.830;-3.870;2022-09-21T05:13:41;4.07;;;3.70;;
15915;SDS011;8057;47.830;-3.870;2022-09-21T05:17:50;4.00;;;3.60;;
15915;SDS011;8057;47.830;-3.870;2022-09-21T05:21:59;4.20;;;3.90;;
15915;SDS011;8057;47.830;-3.870;2022-09-21T05:26:09;4.23;;;3.83;;
15915;SDS011;8057;47.830;-3.870;2022-09-21T05:30:19;5.00;;;4.60;;
15915;SDS011;8057;47.830;-3.870;2022-09-21T05:34:32;4.10;;;3.80;;
15915;SDS011;8057;47.830;-3.870;2022-09-21T05:38:48;4.17;;;3.87;;
15915;SDS011;8057;47.830;-3.870;2022-09-21T05:42:59;4.67;;;4.27;;
15915;SDS011;8057;47.830;-3.870;2022-09-21T05:47:11;4.30;;;3.90;;
15915;SDS011;8057;47.830;-3.870;2022-09-21T05:51:32;4.87;;;4.37;;
15915;SDS011;8057;47.830;-3.870;2022-09-21T05:55:47;5.00;;;4.60;;
15915;SDS011;8057;47.830;-3.870;2022-09-21T06:00:06;4.93;;;4.53;;
15915;SDS011;8057;47.830;-3.870;2022-09-21T06:04:22;5.10;;;4.40;;
15915;SDS011;8057;47.830;-3.870;2022-09-21T06:08:31;5.20;;;4.80;;
15915;SDS011;8057;47.830;-3.870;2022-09-21T06:12:40;5.73;;;5.20;;
15915;SDS011;8057;47.830;-3.870;2022-09-21T06:16:51;5.27;;;4.87;;
15915;SDS011;8057;47.830;-3.870;2022-09-21T06:21:00;6.43;;;5.83;;
15915;SDS011;8057;47.830;-3.870;2022-09-21T06:25:09;4.80;;;4.40;;
15915;SDS011;8057;47.830;-3.870;2022-09-21T06:29:18;5.97;;;5.47;;
15915;SDS011;8057;47.830;-3.870;2022-09-21T06:33:30;6.13;;;5.53;;
15915;SDS011;8057;47.830;-3.870;2022-09-21T06:37:41;6.50;;;5.60;;
15915;SDS011;8057;47.830;-3.870;2022-09-21T06:41:50;5.20;;;4.70;;
15915;SDS011;8057;47.830;-3.870;2022-09-21T06:46:00;5.97;;;5.47;;
15915;SDS011;8057;47.830;-3.870;2022-09-21T06:50:11;6.60;;;5.83;;
15915;SDS011;8057;47.830;-3.870;2022-09-21T06:54:20;5.87;;;5.33;;
15915;SDS011;8057;47.830;-3.870;2022-09-21T06:58:30;5.90;;;5.30;;
15915;SDS011;8057;47.830;-3.870;2022-09-21T07:02:41;6.20;;;5.70;;
15915;SDS011;8057;47.830;-3.870;2022-09-21T07:06:52;5.70;;;5.10;;
15915;SDS011;8057;47.830;-3.870;2022-09-21T07:11:02;6.07;;;5.57;;
15915;SDS011;8057;47.830;-3.870;2022-09-21T07:15:11;5.63;;;5.13;;
15915;SDS011;8057;47.830;-3.870;2022-09-21T07:19:21;6.03;;;5.30;;
15915;SDS011;8057;47.830;-3.870;2022-09-21T07:23:31;5.90;;;5.40;;
15915;SDS011;8057;47.830;-3.870;2022-09-21T07:27:41;6.03;;;5.43;;
15915;SDS011;8057;47.830;-3.870;2022-09-21T07:31:50;5.77;;;5.13;;
15915;SDS011;8057;47.830;-3.870;2022-09-21T07:35:59;5.90;;;5.30;;
15915;SDS011;8057;47.830;-3.870;2022-09-21T07:40:11;6.70;;;5.53;;
15915;SDS011;8057;47.830;-3.870;2022-09-21T07:44:20;5.87;;;5.37;;
15915;SDS011;8057;47.830;-3.870;2022-09-21T07:48:29;6.27;;;5.67;;
15915;SDS011;8057;47.830;-3.870;2022-09-21T07:52:38;6.10;;;5.63;;
15915;SDS011;8057;47.830;-3.870;2022-09-21T07:56:49;5.63;;;5.23;;
15915;SDS011;8057;47.830;-3.870;2022-09-21T08:01:11;6.27;;;5.67;;
15915;SDS011;8057;47.830;-3.870;2022-09-21T08:05:21;6.43;;;5.67;;
15915;SDS011;8057;47.830;-3.870;2022-09-21T08:09:30;6.10;;;5.60;;
15915;SDS011;8057;47.830;-3.870;2022-09-21T08:13:40;5.37;;;4.93;;
15915;SDS011;8057;47.830;-3.870;2022-09-21T08:17:49;7.37;;;6.30;;
15915;SDS011;8057;47.830;-3.870;2022-09-21T08:21:58;6.70;;;6.23;;
15915;SDS011;8057;47.830;-3.870;2022-09-21T08:26:09;6.23;;;5.40;;
15915;SDS011;8057;47.830;-3.870;2022-09-21T08:30:25;6.53;;;5.50;;
15915;SDS011;8057;47.830;-3.870;2022-09-21T08:34:36;5.80;;;5.30;;
15915;SDS011;8057;47.830;-3.870;2022-09-21T08:38:45;5.73;;;5.23;;
15915;SDS011;8057;47.830;-3.870;2022-09-21T08:42:57;5.93;;;4.77;;
15915;SDS011;8057;47.830;-3.870;2022-09-21T08:47:13;5.30;;;4.90;;
15915;SDS011;8057;47.830;-3.870;2022-09-21T08:51:27;5.60;;;4.73;;
15915;SDS011;8057;47.830;-3.870;2022-09-21T08:55:41;5.70;;;3.83;;
15915;SDS011;8057;47.830;-3.870;2022-09-21T08:59:50;3.83;;;3.50;;
15915;SDS011;8057;47.830;-3.870;2022-09-21T09:04:06;3.67;;;3.37;;
15915;SDS011;8057;47.830;-3.870;2022-09-21T09:08:34;3.80;;;3.50;;
15915;SDS011;8057;47.830;-3.870;2022-09-21T09:13:07;4.93;;;4.00;;
15915;SDS011;8057;47.830;-3.870;2022-09-21T09:17:33;3.50;;;3.30;;
15915;SDS011;8057;47.830;-3.870;2022-09-21T09:21:52;4.20;;;3.80;;
15915;SDS011;8057;47.830;-3.870;2022-09-21T09:26:03;4.50;;;4.10;;
15915;SDS011;8057;47.830;-3.870;2022-09-21T09:30:17;4.53;;;3.77;;
15915;SDS011;8057;47.830;-3.870;2022-09-21T09:34:28;4.03;;;3.00;;
15915;SDS011;8057;47.830;-3.870;2022-09-21T09:38:43;4.20;;;3.03;;
15915;SDS011;8057;47.830;-3.870;2022-09-21T09:42:58;3.63;;;3.00;;
15915;SDS011;8057;47.830;-3.870;2022-09-21T09:47:15;3.03;;;2.73;;
15915;SDS011;8057;47.830;-3.870;2022-09-21T09:51:31;3.13;;;2.90;;
15915;SDS011;8057;47.830;-3.870;2022-09-21T09:55:44;3.30;;;2.90;;
15915;SDS011;8057;47.830;-3.870;2022-09-21T09:59:56;2.73;;;2.53;;
15915;SDS011;8057;47.830;-3.870;2022-09-21T10:04:07;2.70;;;2.50;;
15915;SDS011;8057;47.830;-3.870;2022-09-21T10:08:29;2.93;;;2.73;;
15915;SDS011;8057;47.830;-3.870;2022-09-21T10:12:53;3.83;;;2.53;;
15915;SDS011;8057;47.830;-3.870;2022-09-21T10:17:05;4.30;;;2.43;;
15915;SDS011;8057;47.830;-3.870;2022-09-21T10:21:16;2.37;;;2.17;;
15915;SDS011;8057;47.830;-3.870;2022-09-21T10:25:28;3.67;;;3.20;;
15915;SDS011;8057;47.830;-3.870;2022-09-21T10:29:46;3.80;;;2.50;;
15915;SDS011;8057;47.830;-3.870;2022-09-21T10:34:09;3.37;;;2.10;;
15915;SDS011;8057;47.830;-3.870;2022-09-21T10:38:24;3.57;;;2.10;;
15915;SDS011;8057;47.830;-3.870;2022-09-21T10:42:35;2.63;;;2.00;;
15915;SDS011;8057;47.830;-3.870;2022-09-21T10:46:50;3.20;;;2.20;;
15915;SDS011;8057;47.830;-3.870;2022-09-21T10:51:01;3.23;;;2.10;;
15915;SDS011;8057;47.830;-3.870;2022-09-21T10:55:14;4.20;;;2.00;;
15915;SDS011;8057;47.830;-3.870;2022-09-21T10:59:26;4.50;;;2.43;;
15915;SDS011;8057;47.830;-3.870;2022-09-21T11:03:41;2.57;;;1.77;;
15915;SDS011;8057;47.830;-3.870;2022-09-21T11:07:58;2.23;;;2.00;;
15915;SDS011;8057;47.830;-3.870;2022-09-21T11:12:29;3.10;;;1.80;;
15915;SDS011;8057;47.830;-3.870;2022-09-21T11:16:50;2.53;;;2.03;;
15915;SDS011;8057;47.830;-3.870;2022-09-21T11:21:08;2.00;;;1.80;;
15915;SDS011;8057;47.830;-3.870;2022-09-21T11:25:25;2.70;;;1.63;;
15915;SDS011;8057;47.830;-3.870;2022-09-21T11:29:45;1.80;;;1.70;;
15915;SDS011;8057;47.830;-3.870;2022-09-21T11:34:04;3.33;;;1.90;;
15915;SDS011;8057;47.830;-3.870;2022-09-21T11:38:27;2.80;;;2.10;;
15915;SDS011;8057;47.830;-3.870;2022-09-21T11:42:51;2.07;;;1.97;;
15915;SDS011;8057;47.830;-3.870;2022-09-21T11:47:12;4.40;;;2.23;;
15915;SDS011;8057;47.830;-3.870;2022-09-21T11:51:45;2.67;;;2.43;;
15915;SDS011;8057;47.830;-3.870;2022-09-21T12:00:47;3.03;;;2.10;;
15915;SDS011;8057;47.830;-3.870;2022-09-21T12:05:05;2.37;;;1.80;;
15915;SDS011;8057;47.830;-3.870;2022-09-21T12:09:29;2.40;;;1.90;;
15915;SDS011;8057;47.830;-3.870;2022-09-21T12:13:55;4.80;;;2.37;;
15915;SDS011;8057;47.830;-3.870;2022-09-21T12:18:10;4.73;;;2.40;;
15915;SDS011;8057;47.830;-3.870;2022-09-21T12:22:25;3.23;;;2.10;;
15915;SDS011;8057;47.830;-3.870;2022-09-21T12:26:38;2.63;;;2.27;;
15915;SDS011;8057;47.830;-3.870;2022-09-21T12:30:52;5.07;;;2.50;;
15915;SDS011;8057;47.830;-3.870;2022-09-21T12:35:08;3.20;;;2.73;;
15915;SDS011;8057;47.830;-3.870;2022-09-21T12:39:24;3.77;;;2.73;;
15915;SDS011;8057;47.830;-3.870;2022-09-21T12:43:37;2.60;;;2.40;;
15915;SDS011;8057;47.830;-3.870;2022-09-21T12:47:54;5.57;;;2.60;;
15915;SDS011;8057;47.830;-3.870;2022-09-21T12:52:17;4.60;;;2.63;;
15915;SDS011;8057;47.830;-3.870;2022-09-21T12:56:31;3.17;;;2.83;;
15915;SDS011;8057;47.830;-3.870;2022-09-21T13:00:48;3.13;;;2.63;;
15915;SDS011;8057;47.830;-3.870;2022-09-21T13:05:09;3.03;;;2.40;;
15915;SDS011;8057;47.830;-3.870;2022-09-21T13:09:22;3.13;;;2.10;;
15915;SDS011;8057;47.830;-3.870;2022-09-21T13:13:33;4.97;;;2.40;;
15915;SDS011;8057;47.830;-3.870;2022-09-21T13:17:45;2.70;;;2.03;;
15915;SDS011;8057;47.830;-3.870;2022-09-21T13:22:10;2.87;;;1.80;;
15915;SDS011;8057;47.830;-3.870;2022-09-21T13:26:35;2.10;;;1.90;;
15915;SDS011;8057;47.830;-3.870;2022-09-21T13:35:51;2.63;;;1.77;;
15915;SDS011;8057;47.830;-3.870;2022-09-21T13:45:45;2.67;;;1.90;;
15915;SDS011;8057;47.830;-3.870;2022-09-21T13:49:52;2.00;;;1.50;;
15915;SDS011;8057;47.830;-3.870;2022-09-21T13:54:10;2.57;;;1.97;;
15915;SDS011;8057;47.830;-3.870;2022-09-21T13:58:23;2.93;;;1.80;;
15915;SDS011;8057;47.830;-3.870;2022-09-21T14:02:34;2.83;;;2.13;;
15915;SDS011;8057;47.830;-3.870;2022-09-21T14:06:46;3.40;;;1.60;;
15915;SDS011;8057;47.830;-3.870;2022-09-21T14:10:57;1.97;;;1.60;;
15915;SDS011;8057;47.830;-3.870;2022-09-21T14:15:29;2.60;;;1.63;;
15915;SDS011;8057;47.830;-3.870;2022-09-21T14:24:17;2.00;;;1.90;;
15915;SDS011;8057;47.830;-3.870;2022-09-21T14:28:31;2.47;;;1.93;;
15915;SDS011;8057;47.830;-3.870;2022-09-21T14:32:46;2.73;;;2.00;;
15915;SDS011;8057;47.830;-3.870;2022-09-21T14:37:00;2.03;;;1.60;;
15915;SDS011;8057;47.830;-3.870;2022-09-21T14:41:14;3.33;;;2.00;;
15915;SDS011;8057;47.830;-3.870;2022-09-21T14:45:29;1.93;;;1.40;;
15915;SDS011;8057;47.830;-3.870;2022-09-21T14:49:51;2.63;;;2.00;;
15915;SDS011;8057;47.830;-3.870;2022-09-21T14:54:23;3.13;;;2.20;;
15915;SDS011;8057;47.830;-3.870;2022-09-21T14:58:47;2.37;;;1.73;;
15915;SDS011;8057;47.830;-3.870;2022-09-21T15:03:10;2.50;;;2.30;;
15915;SDS011;8057;47.830;-3.870;2022-09-21T15:07:41;2.53;;;2.00;;
15915;SDS011;8057;47.830;-3.870;2022-09-21T15:12:14;1.90;;;1.60;;
15915;SDS011;8057;47.830;-3.870;2022-09-21T15:16:32;2.57;;;1.83;;
15915;SDS011;8057;47.830;-3.870;2022-09-21T15:20:53;2.60;;;1.60;;
15915;SDS011;8057;47.830;-3.870;2022-09-21T15:25:11;2.67;;;2.03;;
15915;SDS011;8057;47.830;-3.870;2022-09-21T15:29:23;2.67;;;2.00;;
15915;SDS011;8057;47.830;-3.870;2022-09-21T15:33:35;2.83;;;1.83;;
15915;SDS011;8057;47.830;-3.870;2022-09-21T15:37:46;3.30;;;1.87;;
15915;SDS011;8057;47.830;-3.870;2022-09-21T15:42:07;1.87;;;1.70;;
15915;SDS011;8057;47.830;-3.870;2022-09-21T15:46:28;2.83;;;1.73;;
15915;SDS011;8057;47.830;-3.870;2022-09-21T15:50:38;2.27;;;1.83;;
15915;SDS011;8057;47.830;-3.870;2022-09-21T15:54:51;3.20;;;1.77;;
15915;SDS011;8057;47.830;-3.870;2022-09-21T15:59:05;3.03;;;1.90;;
15915;SDS011;8057;47.830;-3.870;2022-09-21T16:03:15;3.20;;;1.77;;
15915;SDS011;8057;47.830;-3.870;2022-09-21T16:07:29;3.63;;;2.20;;
15915;SDS011;8057;47.830;-3.870;2022-09-21T16:11:40;4.30;;;1.83;;
15915;SDS011;8057;47.830;-3.870;2022-09-21T16:16:00;2.17;;;1.93;;
15915;SDS011;8057;47.830;-3.870;2022-09-21T16:20:15;4.73;;;2.20;;
15915;SDS011;8057;47.830;-3.870;2022-09-21T16:24:28;4.43;;;2.07;;
15915;SDS011;8057;47.830;-3.870;2022-09-21T16:28:43;1.60;;;1.50;;
15915;SDS011;8057;47.830;-3.870;2022-09-21T16:32:54;2.40;;;1.70;;
15915;SDS011;8057;47.830;-3.870;2022-09-21T16:37:19;3.57;;;2.00;;
15915;SDS011;8057;47.830;-3.870;2022-09-21T16:41:34;2.30;;;1.20;;
15915;SDS011;8057;47.830;-3.870;2022-09-21T16:45:46;2.30;;;2.10;;
15915;SDS011;8057;47.830;-3.870;2022-09-21T16:49:57;4.33;;;1.83;;
15915;SDS011;8057;47.830;-3.870;2022-09-21T16:54:07;2.70;;;1.93;;
15915;SDS011;8057;47.830;-3.870;2022-09-21T16:58:16;1.93;;;1.50;;
15915;SDS011;8057;47.830;-3.870;2022-09-21T17:02:26;2.37;;;1.70;;
15915;SDS011;8057;47.830;-3.870;2022-09-21T17:06:38;1.70;;;1.60;;
15915;SDS011;8057;47.830;-3.870;2022-09-21T17:10:47;2.67;;;1.73;;
15915;SDS011;8057;47.830;-3.870;2022-09-21T17:14:57;2.97;;;1.80;;
15915;SDS011;8057;47.830;-3.870;2022-09-21T17:19:07;1.77;;;1.30;;
15915;SDS011;8057;47.830;-3.870;2022-09-21T17:23:18;2.47;;;1.50;;
15915;SDS011;8057;47.830;-3.870;2022-09-21T17:27:33;2.57;;;1.70;;
15915;SDS011;8057;47.830;-3.870;2022-09-21T17:31:42;3.27;;;1.70;;
15915;SDS011;8057;47.830;-3.870;2022-09-21T17:35:51;3.37;;;2.10;;
15915;SDS011;8057;47.830;-3.870;2022-09-21T17:40:03;2.80;;;1.60;;
15915;SDS011;8057;47.830;-3.870;2022-09-21T17:44:17;2.07;;;1.70;;
15915;SDS011;8057;47.830;-3.870;2022-09-21T17:48:40;3.23;;;1.80;;
15915;SDS011;8057;47.830;-3.870;2022-09-21T17:52:49;3.23;;;1.87;;
15915;SDS011;8057;47.830;-3.870;2022-09-21T17:57:23;2.33;;;1.50;;
15915;SDS011;8057;47.830;-3.870;2022-09-21T18:01:41;1.40;;;1.30;;
15915;SDS011;8057;47.830;-3.870;2022-09-21T18:05:51;1.77;;;1.57;;
15915;SDS011;8057;47.830;-3.870;2022-09-21T18:10:05;3.23;;;1.60;;
15915;SDS011;8057;47.830;-3.870;2022-09-21T18:14:21;2.77;;;1.57;;
15915;SDS011;8057;47.830;-3.870;2022-09-21T18:18:40;2.17;;;1.70;;
15915;SDS011;8057;47.830;-3.870;2022-09-21T18:22:53;3.37;;;1.80;;
15915;SDS011;8057;47.830;-3.870;2022-09-21T18:27:09;1.93;;;1.57;;
15915;SDS011;8057;47.830;-3.870;2022-09-21T18:31:23;2.80;;;1.87;;
15915;SDS011;8057;47.830;-3.870;2022-09-21T18:35:44;2.47;;;1.63;;
15915;SDS011;8057;47.830;-3.870;2022-09-21T18:40:03;2.30;;;1.93;;
15915;SDS011;8057;47.830;-3.870;2022-09-21T18:44:45;2.23;;;1.77;;
15915;SDS011;8057;47.830;-3.870;2022-09-21T18:49:19;2.77;;;2.23;;
15915;SDS011;8057;47.830;-3.870;2022-09-21T18:54:06;2.67;;;2.10;;
15915;SDS011;8057;47.830;-3.870;2022-09-21T18:58:24;2.33;;;2.00;;
15915;SDS011;8057;47.830;-3.870;2022-09-21T19:02:36;2.77;;;2.20;;
15915;SDS011;8057;47.830;-3.870;2022-09-21T19:12:04;4.07;;;2.80;;
15915;SDS011;8057;47.830;-3.870;2022-09-21T19:16:23;2.63;;;2.40;;
15915;SDS011;8057;47.830;-3.870;2022-09-21T19:20:48;2.57;;;2.37;;
15915;SDS011;8057;47.830;-3.870;2022-09-21T19:25:06;3.93;;;2.60;;
15915;SDS011;8057;47.830;-3.870;2022-09-21T19:29:35;2.73;;;2.53;;
15915;SDS011;8057;47.830;-3.870;2022-09-21T19:33:49;4.30;;;3.03;;
15915;SDS011;8057;47.830;-3.870;2022-09-21T19:37:59;3.50;;;3.20;;
15915;SDS011;8057;47.830;-3.870;2022-09-21T19:42:13;4.17;;;3.60;;
15915;SDS011;8057;47.830;-3.870;2022-09-21T19:46:38;6.33;;;3.87;;
15915;SDS011;8057;47.830;-3.870;2022-09-21T19:50:54;4.70;;;4.00;;
15915;SDS011;8057;47.830;-3.870;2022-09-21T19:55:05;4.83;;;4.40;;
15915;SDS011;8057;47.830;-3.870;2022-09-21T19:59:36;4.40;;;3.97;;
15915;SDS011;8057;47.830;-3.870;2022-09-21T20:03:53;5.20;;;4.70;;
15915;SDS011;8057;47.830;-3.870;2022-09-21T20:08:04;5.07;;;4.67;;
15915;SDS011;8057;47.830;-3.870;2022-09-21T20:12:20;5.70;;;5.17;;
15915;SDS011;8057;47.830;-3.870;2022-09-21T20:16:37;6.13;;;5.63;;
15915;SDS011;8057;47.830;-3.870;2022-09-21T20:20:53;5.80;;;5.20;;
15915;SDS011;8057;47.830;-3.870;2022-09-21T20:25:03;6.30;;;5.80;;
15915;SDS011;8057;47.830;-3.870;2022-09-21T20:29:21;6.63;;;6.10;;
15915;SDS011;8057;47.830;-3.870;2022-09-21T20:33:34;6.73;;;6.13;;
15915;SDS011;8057;47.830;-3.870;2022-09-21T20:37:44;6.03;;;5.53;;
15915;SDS011;8057;47.830;-3.870;2022-09-21T20:41:54;6.37;;;5.80;;
15915;SDS011;8057;47.830;-3.870;2022-09-21T20:46:04;6.00;;;5.60;;
15915;SDS011;8057;47.830;-3.870;2022-09-21T20:50:13;7.03;;;6.43;;
15915;SDS011;8057;47.830;-3.870;2022-09-21T20:54:25;5.67;;;5.17;;
15915;SDS011;8057;47.830;-3.870;2022-09-21T20:58:34;6.83;;;6.30;;
15915;SDS011;8057;47.830;-3.870;2022-09-21T21:02:43;6.47;;;5.97;;
15915;SDS011;8057;47.830;-3.870;2022-09-21T21:06:52;9.07;;;6.80;;
15915;SDS011;8057;47.830;-3.870;2022-09-21T21:11:04;5.93;;;5.53;;
15915;SDS011;8057;47.830;-3.870;2022-09-21T21:15:13;5.87;;;5.47;;
15915;SDS011;8057;47.830;-3.870;2022-09-21T21:19:22;6.87;;;6.27;;
15915;SDS011;8057;47.830;-3.870;2022-09-21T21:23:31;6.73;;;6.10;;
15915;SDS011;8057;47.830;-3.870;2022-09-21T21:28:02;6.77;;;6.17;;
15915;SDS011;8057;47.830;-3.870;2022-09-21T21:32:11;7.83;;;7.13;;
15915;SDS011;8057;47.830;-3.870;2022-09-21T21:36:20;6.23;;;5.80;;
15915;SDS011;8057;47.830;-3.870;2022-09-21T21:40:29;6.87;;;6.27;;
15915;SDS011;8057;47.830;-3.870;2022-09-21T21:44:40;5.93;;;5.23;;
15915;SDS011;8057;47.830;-3.870;2022-09-21T21:48:49;5.73;;;5.17;;
15915;SDS011;8057;47.830;-3.870;2022-09-21T21:52:58;5.57;;;5.17;;
15915;SDS011;8057;47.830;-3.870;2022-09-21T21:57:07;5.97;;;5.40;;
15915;SDS011;8057;47.830;-3.870;2022-09-21T22:01:19;7.83;;;7.07;;
15915;SDS011;8057;47.830;-3.870;2022-09-21T22:05:30;6.70;;;6.27;;
15915;SDS011;8057;47.830;-3.870;2022-09-21T22:09:39;6.90;;;6.30;;
15915;SDS011;8057;47.830;-3.870;2022-09-21T22:13:51;7.70;;;6.90;;
15915;SDS011;8057;47.830;-3.870;2022-09-21T22:18:04;7.93;;;6.53;;
15915;SDS011;8057;47.830;-3.870;2022-09-21T22:22:13;7.70;;;7.10;;
15915;SDS011;8057;47.830;-3.870;2022-09-21T22:26:22;5.83;;;5.33;;
15915;SDS011;8057;47.830;-3.870;2022-09-21T22:30:32;7.03;;;6.33;;
15915;SDS011;8057;47.830;-3.870;2022-09-21T22:34:43;6.13;;;5.53;;
15915;SDS011;8057;47.830;-3.870;2022-09-21T22:38:52;7.70;;;7.00;;
15915;SDS011;8057;47.830;-3.870;2022-09-21T22:43:02;7.07;;;6.50;;
15915;SDS011;8057;47.830;-3.870;2022-09-21T22:47:11;6.93;;;6.43;;
15915;SDS011;8057;47.830;-3.870;2022-09-21T22:51:21;5.63;;;5.13;;
15915;SDS011;8057;47.830;-3.870;2022-09-21T22:55:31;6.87;;;6.37;;
15915;SDS011;8057;47.830;-3.870;2022-09-21T22:59:40;7.93;;;6.63;;
15915;SDS011;8057;47.830;-3.870;2022-09-21T23:03:49;6.90;;;6.37;;
15915;SDS011;8057;47.830;-3.870;2022-09-21T23:08:01;6.73;;;6.00;;
15915;SDS011;8057;47.830;-3.870;2022-09-21T23:12:10;7.63;;;6.83;;
15915;SDS011;8057;47.830;-3.870;2022-09-21T23:16:19;7.70;;;7.00;;
15915;SDS011;8057;47.830;-3.870;2022-09-21T23:20:28;8.13;;;6.90;;
15915;SDS011;8057;47.830;-3.870;2022-09-21T23:24:39;7.97;;;7.20;;
15915;SDS011;8057;47.830;-3.870;2022-09-21T23:28:49;8.47;;;7.67;;
15915;SDS011;8057;47.830;-3.870;2022-09-21T23:32:59;7.63;;;6.93;;
15915;SDS011;8057;47.830;-3.870;2022-09-21T23:37:08;7.80;;;7.10;;
15915;SDS011;8057;47.830;-3.870;2022-09-21T23:41:19;8.20;;;7.50;;
15915;SDS011;8057;47.830;-3.870;2022-09-21T23:45:29;7.87;;;7.20;;
15915;SDS011;8057;47.830;-3.870;2022-09-21T23:49:38;7.80;;;7.10;;
15915;SDS011;8057;47.830;-3.870;2022-09-21T23:53:47;7.80;;;7.20;;
15915;SDS011;8057;47.830;-3.870;2022-09-21T23:57:57;7.77;;;7.03;;
